Time;durP1;ratioP1;P1;durP2;ratioP2;P2;SDS_P1;SDS_P2;PMS_P1;PMS_P2;Temp;Humidity;BMP_temperature;BMP_pressure;BME280_temperature;BME280_humidity;BME280_pressure;Samples;Min_cycle;Max_cycle;Signal;HPM_P1;HPM_P2
2024/03/03 00:02:11;;;;;;;23.67;17.63;;;10.70;99.90;;;;;;5088409;28;20657;-74
2024/03/03 00:04:38;;;;;;;25.07;17.47;;;10.80;99.90;;;;;;5088170;28;20648;-74
2024/03/03 00:07:05;;;;;;;24.00;19.00;;;10.80;99.90;;;;;;5088048;28;20626;-73
2024/03/03 00:09:33;;;;;;;23.27;18.60;;;10.70;99.90;;;;;;5088161;28;20198;-74
2024/03/03 00:12:00;;;;;;;25.53;19.37;;;10.80;99.90;;;;;;5088117;28;20824;-73
2024/03/03 00:14:27;;;;;;;25.17;19.07;;;10.80;99.90;;;;;;5087994;28;20191;-73
2024/03/03 00:16:56;;;;;;;24.67;18.83;;;10.80;99.90;;;;;;5087991;28;20313;-73
2024/03/03 00:19:23;;;;;;;25.93;19.93;;;10.80;99.90;;;;;;5087871;28;20246;-73
2024/03/03 00:21:50;;;;;;;26.30;20.07;;;10.80;99.90;;;;;;5087134;28;20724;-73
2024/03/03 00:24:17;;;;;;;25.50;19.30;;;10.80;99.90;;;;;;5087620;28;20673;-73
2024/03/03 00:26:44;;;;;;;29.67;21.13;;;10.80;99.90;;;;;;5087927;28;20238;-73
2024/03/03 00:29:11;;;;;;;25.67;20.07;;;10.80;99.90;;;;;;5087926;28;20199;-73
2024/03/03 00:31:43;;;;;;;24.93;19.63;;;10.80;99.90;;;;;;5087578;28;20249;-73
2024/03/03 00:34:12;;;;;;;30.40;22.07;;;10.80;99.90;;;;;;5086954;28;20203;-74
2024/03/03 00:36:38;;;;;;;30.77;21.50;;;10.80;99.90;;;;;;5087619;28;20321;-74
2024/03/03 00:39:05;;;;;;;27.23;21.27;;;10.80;99.90;;;;;;5087596;28;20934;-74
2024/03/03 00:41:32;;;;;;;27.70;21.07;;;10.80;99.90;;;;;;5087544;28;20835;-74
2024/03/03 00:43:59;;;;;;;29.10;21.80;;;10.70;99.90;;;;;;5087370;28;20294;-74
2024/03/03 00:46:26;;;;;;;29.43;22.53;;;10.70;99.90;;;;;;5087370;28;20313;-74
2024/03/03 00:48:53;;;;;;;30.00;23.20;;;10.70;99.90;;;;;;5087805;28;20301;-73
2024/03/03 00:51:21;;;;;;;31.23;22.37;;;10.70;99.90;;;;;;5087091;28;20249;-73
2024/03/03 00:53:48;;;;;;;27.30;22.77;;;10.70;99.90;;;;;;5087182;28;20265;-72
2024/03/03 00:56:15;;;;;;;30.40;22.37;;;10.70;99.90;;;;;;5086962;28;20309;-73
2024/03/03 00:58:42;;;;;;;35.07;23.13;;;10.70;99.90;;;;;;5087260;28;20290;-73
2024/03/03 01:01:11;;;;;;;29.20;22.43;;;10.80;99.90;;;;;;5086900;28;20202;-73
2024/03/03 01:03:40;;;;;;;30.77;23.13;;;10.80;99.90;;;;;;5087564;28;20206;-73
2024/03/03 01:06:06;;;;;;;30.33;22.00;;;10.80;99.90;;;;;;5087089;28;20213;-73
2024/03/03 01:08:35;;;;;;;29.27;22.47;;;10.80;99.90;;;;;;5086667;28;20298;-73
2024/03/03 01:11:02;;;;;;;30.13;22.47;;;10.80;99.90;;;;;;5085601;28;20243;-73
2024/03/03 01:13:28;;;;;;;29.10;22.57;;;10.80;99.90;;;;;;5086603;28;20326;-73
2024/03/03 01:15:55;;;;;;;29.33;21.77;;;10.80;99.90;;;;;;5083348;28;20248;-73
2024/03/03 01:18:22;;;;;;;31.33;22.67;;;10.70;99.90;;;;;;5086431;28;20307;-73
2024/03/03 01:20:49;;;;;;;30.53;22.37;;;10.80;99.90;;;;;;5086522;28;20230;-73
2024/03/03 01:23:17;;;;;;;28.80;22.40;;;10.80;99.90;;;;;;5086417;28;20290;-73
2024/03/03 01:25:46;;;;;;;27.43;21.97;;;10.70;99.90;;;;;;5086288;28;20206;-73
2024/03/03 01:28:13;;;;;;;29.30;22.50;;;10.70;99.90;;;;;;5086671;28;20305;-73
2024/03/03 01:30:39;;;;;;;27.97;21.87;;;10.70;99.90;;;;;;5087295;28;20203;-73
2024/03/03 01:33:06;;;;;;;29.17;22.00;;;10.70;99.90;;;;;;5086508;28;21013;-73
2024/03/03 01:35:33;;;;;;;29.40;21.90;;;10.70;99.90;;;;;;5085817;28;20207;-73
2024/03/03 01:38:00;;;;;;;30.67;23.03;;;10.70;99.90;;;;;;5086644;28;20234;-73
2024/03/03 01:40:27;;;;;;;28.97;21.83;;;10.60;99.90;;;;;;5086962;28;20238;-73
2024/03/03 01:42:59;;;;;;;32.17;23.30;;;10.60;99.90;;;;;;5087212;28;20210;-73
2024/03/03 01:45:25;;;;;;;28.80;22.23;;;10.60;99.90;;;;;;5086195;28;20206;-73
2024/03/03 01:47:54;;;;;;;31.17;23.00;;;10.60;99.90;;;;;;5086787;28;20329;-73
2024/03/03 01:50:22;;;;;;;27.60;22.40;;;10.60;99.90;;;;;;5086367;28;20272;-74
2024/03/03 01:52:51;;;;;;;30.17;22.73;;;10.50;99.90;;;;;;5086435;28;20293;-73
2024/03/03 01:55:21;;;;;;;30.93;23.80;;;10.60;99.90;;;;;;5086377;28;20759;-73
2024/03/03 01:57:50;;;;;;;32.03;23.70;;;10.50;99.90;;;;;;5086096;28;20329;-72
2024/03/03 02:00:18;;;;;;;29.97;23.33;;;10.50;99.90;;;;;;5086474;28;20256;-72
2024/03/03 02:02:45;;;;;;;30.63;22.87;;;10.50;99.90;;;;;;5086341;28;20301;-73
2024/03/03 02:05:14;;;;;;;32.27;23.83;;;10.50;99.90;;;;;;5086403;28;20234;-72
2024/03/03 02:07:41;;;;;;;31.40;23.27;;;10.50;99.90;;;;;;5086459;28;20209;-72
2024/03/03 02:10:09;;;;;;;30.13;23.50;;;10.50;99.90;;;;;;5086662;28;20289;-73
2024/03/03 02:12:36;;;;;;;34.80;24.43;;;10.50;99.90;;;;;;5085644;28;20242;-73
2024/03/03 02:15:03;;;;;;;33.73;24.57;;;10.40;99.90;;;;;;5087003;28;20570;-73
2024/03/03 02:17:31;;;;;;;29.97;23.30;;;10.40;99.90;;;;;;5086123;28;20791;-71
2024/03/03 02:19:58;;;;;;;31.30;24.20;;;10.40;99.90;;;;;;5086097;28;20686;-74
2024/03/03 02:22:27;;;;;;;30.80;23.93;;;10.40;99.90;;;;;;5086290;28;20221;-74
2024/03/03 02:24:54;;;;;;;30.00;24.23;;;10.40;99.90;;;;;;5086780;28;20321;-73
2024/03/03 02:27:21;;;;;;;31.90;24.50;;;10.40;99.90;;;;;;5086312;28;20282;-74
2024/03/03 02:29:47;;;;;;;32.53;23.83;;;10.40;99.90;;;;;;5086781;28;20293;-73
2024/03/03 02:32:14;;;;;;;32.13;24.00;;;10.40;99.90;;;;;;5086338;28;20238;-73
2024/03/03 02:34:41;;;;;;;31.80;23.63;;;10.30;99.90;;;;;;5086297;28;20298;-73
2024/03/03 02:37:08;;;;;;;32.57;24.10;;;10.30;99.90;;;;;;5086611;28;20321;-73
2024/03/03 02:39:36;;;;;;;33.90;26.20;;;10.30;99.90;;;;;;5086034;28;20297;-72
2024/03/03 02:42:03;;;;;;;35.10;25.60;;;10.30;99.90;;;;;;5086164;28;20231;-72
2024/03/03 02:44:30;;;;;;;31.23;24.87;;;10.30;99.90;;;;;;5086440;28;20310;-71
2024/03/03 02:46:57;;;;;;;36.03;25.40;;;10.30;99.90;;;;;;5090418;28;20298;-72
2024/03/03 02:49:24;;;;;;;33.13;25.60;;;10.30;99.90;;;;;;5090033;28;20249;-72
2024/03/03 02:51:51;;;;;;;32.60;23.60;;;10.30;99.90;;;;;;5089463;28;20261;-72
2024/03/03 02:54:18;;;;;;;31.90;24.50;;;10.30;99.90;;;;;;5090008;28;20230;-73
2024/03/03 02:56:47;;;;;;;31.77;24.33;;;10.30;99.90;;;;;;5089280;28;20317;-73
2024/03/03 02:59:14;;;;;;;31.70;24.00;;;10.20;99.90;;;;;;5089392;28;20242;-72
2024/03/03 03:01:41;;;;;;;32.63;24.43;;;10.20;99.90;;;;;;5086679;28;20707;-73
2024/03/03 03:04:08;;;;;;;32.97;24.43;;;10.20;99.90;;;;;;5089605;28;20286;-73
2024/03/03 03:06:35;;;;;;;29.80;23.70;;;10.10;99.90;;;;;;5088182;28;20579;-73
2024/03/03 03:09:02;;;;;;;31.97;23.70;;;10.10;99.90;;;;;;5086598;28;20202;-73
2024/03/03 03:11:29;;;;;;;32.07;24.13;;;10.10;99.90;;;;;;5088888;28;20918;-73
2024/03/03 03:13:58;;;;;;;32.50;24.27;;;10.10;99.90;;;;;;5089287;28;20280;-73
2024/03/03 03:16:24;;;;;;;35.00;25.53;;;10.10;99.90;;;;;;5086655;28;20218;-73
2024/03/03 03:18:51;;;;;;;30.03;24.20;;;10.10;99.90;;;;;;5088858;28;20195;-73
2024/03/03 03:21:20;;;;;;;33.63;25.43;;;10.10;99.90;;;;;;5089348;28;20211;-71
2024/03/03 03:23:47;;;;;;;33.20;25.57;;;10.10;99.90;;;;;;5089691;28;20217;-71
2024/03/03 03:26:14;;;;;;;35.30;25.63;;;10.00;99.90;;;;;;5088955;28;20215;-71
2024/03/03 03:28:41;;;;;;;35.77;25.13;;;10.00;99.90;;;;;;5089264;28;20739;-71
2024/03/03 03:31:10;;;;;;;37.30;25.73;;;10.00;99.90;;;;;;5089153;28;20214;-72
2024/03/03 03:33:37;;;;;;;31.37;24.63;;;10.00;99.90;;;;;;5089451;28;20578;-72
2024/03/03 03:36:08;;;;;;;32.67;25.83;;;10.00;99.90;;;;;;5089252;28;20891;-72
2024/03/03 03:38:35;;;;;;;33.07;25.33;;;10.00;99.90;;;;;;5088874;28;20313;-72
2024/03/03 03:41:03;;;;;;;37.03;25.97;;;10.00;99.90;;;;;;5089075;28;20203;-72
2024/03/03 03:43:30;;;;;;;34.10;25.10;;;10.00;99.90;;;;;;5089150;28;20218;-71
2024/03/03 03:45:57;;;;;;;34.17;25.70;;;9.90;99.90;;;;;;5088834;28;20632;-72
2024/03/03 03:48:25;;;;;;;33.30;26.37;;;9.90;99.90;;;;;;5085875;28;20465;-72
2024/03/03 03:50:52;;;;;;;36.53;26.23;;;9.90;99.90;;;;;;5089142;28;20213;-72
2024/03/03 03:53:20;;;;;;;35.70;25.43;;;9.90;99.90;;;;;;5088563;28;20211;-73
2024/03/03 03:55:47;;;;;;;34.20;24.97;;;9.90;99.90;;;;;;5088770;28;20764;-72
2024/03/03 03:58:14;;;;;;;32.80;25.17;;;9.90;99.90;;;;;;5087793;28;20353;-71
2024/03/03 04:00:41;;;;;;;34.80;25.77;;;10.00;99.90;;;;;;5088249;28;20213;-71
2024/03/03 04:03:08;;;;;;;34.13;25.63;;;9.90;99.90;;;;;;5088833;28;20227;-71
2024/03/03 04:05:36;;;;;;;32.93;25.27;;;9.90;99.90;;;;;;5088467;28;20302;-73
2024/03/03 04:08:03;;;;;;;39.90;26.23;;;9.90;99.90;;;;;;5088392;28;20637;-73
2024/03/03 04:10:30;;;;;;;34.53;25.37;;;9.90;99.90;;;;;;5088398;28;20658;-73
2024/03/03 04:12:57;;;;;;;33.77;25.73;;;9.90;99.90;;;;;;5087958;28;20977;-74
2024/03/03 04:15:25;;;;;;;33.70;25.70;;;9.90;99.90;;;;;;5088261;28;20936;-73
2024/03/03 04:17:52;;;;;;;35.30;25.90;;;9.90;99.90;;;;;;5087890;28;20231;-74
2024/03/03 04:20:19;;;;;;;32.30;25.97;;;9.90;99.90;;;;;;5087934;28;20273;-73
2024/03/03 04:22:47;;;;;;;36.60;26.33;;;9.80;99.90;;;;;;5087650;28;20297;-73
2024/03/03 04:25:15;;;;;;;33.13;25.73;;;9.90;99.90;;;;;;5088190;28;20250;-73
2024/03/03 04:27:41;;;;;;;35.07;26.57;;;9.90;99.90;;;;;;5067722;28;20207;-73
2024/03/03 04:30:09;;;;;;;32.03;25.30;;;9.90;99.90;;;;;;5067984;28;20203;-73
2024/03/03 04:32:36;;;;;;;34.93;26.87;;;9.90;99.90;;;;;;5087982;28;20233;-73
2024/03/03 04:35:03;;;;;;;35.43;26.77;;;9.90;99.90;;;;;;5088290;28;20297;-73
2024/03/03 04:37:30;;;;;;;33.43;25.30;;;9.80;99.90;;;;;;5087487;28;20681;-73
2024/03/03 04:39:59;;;;;;;35.30;25.70;;;9.80;99.90;;;;;;5087621;28;20214;-74
2024/03/03 04:42:26;;;;;;;35.73;26.30;;;9.80;99.90;;;;;;5087375;28;20199;-74
2024/03/03 04:44:53;;;;;;;34.37;25.90;;;9.80;99.90;;;;;;5084654;28;20302;-74
2024/03/03 04:47:20;;;;;;;32.10;25.07;;;9.80;99.90;;;;;;5087487;28;20206;-73
2024/03/03 04:49:46;;;;;;;33.93;25.83;;;9.70;99.90;;;;;;5087794;28;20298;-73
2024/03/03 04:52:13;;;;;;;34.33;25.37;;;9.70;99.90;;;;;;5070586;28;20290;-73
2024/03/03 04:54:40;;;;;;;34.23;26.43;;;9.70;99.90;;;;;;5087364;28;20201;-73
2024/03/03 04:57:08;;;;;;;33.43;26.43;;;9.70;99.90;;;;;;5087514;28;20202;-73
2024/03/03 04:59:35;;;;;;;37.53;27.33;;;9.70;99.90;;;;;;5087211;28;20195;-73
2024/03/03 05:02:03;;;;;;;33.60;26.23;;;9.70;99.90;;;;;;5087453;28;20249;-73
2024/03/03 05:04:30;;;;;;;34.60;26.37;;;9.80;99.90;;;;;;5087293;28;20202;-73
2024/03/03 05:06:57;;;;;;;35.17;25.67;;;9.80;99.90;;;;;;5086918;28;20217;-73
2024/03/03 05:09:24;;;;;;;33.97;26.50;;;9.80;99.90;;;;;;5086303;28;21030;-73
2024/03/03 05:11:51;;;;;;;37.50;27.47;;;9.80;99.90;;;;;;5086908;28;20202;-73
2024/03/03 05:14:19;;;;;;;38.63;27.23;;;9.80;99.90;;;;;;5087199;28;20277;-73
2024/03/03 05:16:46;;;;;;;35.20;26.97;;;9.80;99.90;;;;;;5086955;28;20764;-73
2024/03/03 05:19:12;;;;;;;41.40;27.93;;;9.80;99.90;;;;;;5086546;28;20801;-73
2024/03/03 05:21:39;;;;;;;34.73;26.93;;;9.80;99.90;;;;;;5086946;28;20211;-73
2024/03/03 05:24:06;;;;;;;37.50;28.37;;;9.80;99.90;;;;;;5087465;28;20215;-73
2024/03/03 05:26:33;;;;;;;39.07;27.90;;;9.80;99.90;;;;;;5087465;28;20523;-72
2024/03/03 05:29:00;;;;;;;35.47;26.83;;;9.80;99.90;;;;;;5086893;28;20202;-72
2024/03/03 05:31:39;;;;;;;39.90;28.27;;;9.80;99.90;;;;;;5086863;28;20207;-72
2024/03/03 05:34:06;;;;;;;35.43;27.10;;;9.80;99.90;;;;;;5086817;28;20207;-74
2024/03/03 05:36:33;;;;;;;37.97;28.10;;;9.80;99.90;;;;;;5086319;28;20297;-74
2024/03/03 05:39:00;;;;;;;39.10;28.40;;;9.70;99.90;;;;;;5087228;28;20237;-74
2024/03/03 05:41:27;;;;;;;40.10;28.97;;;9.70;99.90;;;;;;5086649;28;20742;-72
2024/03/03 05:43:54;;;;;;;36.93;27.07;;;9.70;99.90;;;;;;5086941;28;20234;-72
2024/03/03 05:46:21;;;;;;;36.13;27.70;;;9.70;99.90;;;;;;5086700;28;20207;-74
2024/03/03 05:48:49;;;;;;;39.17;28.37;;;9.70;99.90;;;;;;5086949;28;20210;-74
2024/03/03 05:51:17;;;;;;;40.47;28.70;;;9.70;99.90;;;;;;5086636;28;20313;-74
2024/03/03 05:53:44;;;;;;;36.53;27.73;;;9.70;99.90;;;;;;5086416;28;20905;-73
2024/03/03 05:56:14;;;;;;;38.97;28.17;;;9.70;99.90;;;;;;5087077;28;20227;-74
2024/03/03 05:58:40;;;;;;;36.93;27.97;;;9.70;99.90;;;;;;5086872;28;20231;-73
2024/03/03 06:01:08;;;;;;;36.63;28.53;;;9.70;99.90;;;;;;5086660;28;20269;-73
2024/03/03 06:03:35;;;;;;;36.87;27.93;;;9.80;99.90;;;;;;5086610;28;20195;-75
2024/03/03 06:06:04;;;;;;;36.00;28.37;;;9.80;99.90;;;;;;5086623;28;20305;-75
2024/03/03 06:08:31;;;;;;;36.40;28.73;;;9.80;99.90;;;;;;5086978;28;20210;-75
2024/03/03 06:10:58;;;;;;;46.33;29.40;;;9.80;99.90;;;;;;5087026;28;20234;-75
2024/03/03 06:13:25;;;;;;;34.10;28.20;;;9.80;99.90;;;;;;5086277;28;20527;-75
2024/03/03 06:15:52;;;;;;;37.53;29.27;;;9.80;99.90;;;;;;5086079;28;20611;-74
2024/03/03 06:18:19;;;;;;;38.80;27.80;;;9.80;99.90;;;;;;5084361;28;21165;-73
2024/03/03 06:20:46;;;;;;;36.50;28.07;;;9.80;99.90;;;;;;5088272;28;20298;-71
2024/03/03 06:23:14;;;;;;;36.67;28.33;;;9.80;99.90;;;;;;5089545;28;20203;-71
2024/03/03 06:25:41;;;;;;;39.93;29.43;;;9.90;99.90;;;;;;5090764;28;20635;-71
2024/03/03 06:28:08;;;;;;;39.60;28.67;;;9.80;99.90;;;;;;5087744;28;20675;-71
2024/03/03 06:30:35;;;;;;;39.20;29.00;;;9.90;99.90;;;;;;5077485;28;20214;-72
2024/03/03 06:33:02;;;;;;;40.00;28.27;;;9.90;99.90;;;;;;5087946;28;20201;-71
2024/03/03 06:35:29;;;;;;;37.13;28.10;;;9.90;99.90;;;;;;5088060;28;20199;-70
2024/03/03 06:37:56;;;;;;;37.87;29.23;;;10.00;99.90;;;;;;5087377;28;20325;-71
2024/03/03 06:40:28;;;;;;;36.13;28.13;;;10.00;99.90;;;;;;5087758;28;20291;-71
2024/03/03 06:42:55;;;;;;;34.73;27.50;;;10.00;99.90;;;;;;5088073;28;20297;-70
2024/03/03 06:45:22;;;;;;;39.43;28.20;;;10.10;99.90;;;;;;5086915;28;20733;-70
2024/03/03 06:47:48;;;;;;;37.93;28.87;;;10.10;99.90;;;;;;5087718;28;20261;-71
2024/03/03 06:50:15;;;;;;;37.30;29.20;;;10.10;99.90;;;;;;5087052;28;20206;-70
2024/03/03 06:52:42;;;;;;;38.13;28.50;;;10.10;99.90;;;;;;5084865;28;20285;-70
2024/03/03 06:55:09;;;;;;;37.07;28.40;;;10.20;99.90;;;;;;5087123;28;20264;-71
2024/03/03 06:57:38;;;;;;;36.33;28.33;;;10.20;99.90;;;;;;5087874;28;20234;-70
2024/03/03 07:00:06;;;;;;;36.70;27.93;;;10.20;99.90;;;;;;5087858;28;20198;-70
2024/03/03 07:05:13;;;;;;;34.97;25.40;;;10.20;99.90;;;;;;5086894;28;20553;-70
2024/03/03 07:07:40;;;;;;;35.47;26.67;;;10.20;99.90;;;;;;5088118;28;20298;-70
2024/03/03 07:10:09;;;;;;;38.03;29.07;;;10.30;99.90;;;;;;5088023;28;20306;-72
2024/03/03 07:12:37;;;;;;;38.77;27.80;;;10.30;99.90;;;;;;5087015;28;20607;-70
2024/03/03 07:15:05;;;;;;;34.47;26.67;;;10.40;99.90;;;;;;5087226;28;20229;-70
2024/03/03 07:17:32;;;;;;;32.20;26.80;;;10.50;99.90;;;;;;5087087;28;20203;-70
2024/03/03 07:20:01;;;;;;;35.90;28.37;;;10.50;99.90;;;;;;5080716;28;20241;-70
2024/03/03 07:22:33;;;;;;;34.17;28.30;;;10.50;99.90;;;;;;5087364;28;20207;-70
2024/03/03 07:25:00;;;;;;;37.50;27.93;;;10.50;99.90;;;;;;5087368;28;20202;-70
2024/03/03 07:27:26;;;;;;;36.23;27.03;;;10.50;99.90;;;;;;5087655;28;20280;-70
2024/03/03 07:29:55;;;;;;;35.47;27.70;;;10.50;99.90;;;;;;5088571;28;20656;-69
2024/03/03 07:32:21;;;;;;;34.30;28.30;;;10.60;99.90;;;;;;5086586;28;20209;-70
2024/03/03 07:34:49;;;;;;;36.07;26.93;;;10.60;99.90;;;;;;5087952;28;20297;-70
2024/03/03 07:37:19;;;;;;;34.70;28.10;;;10.60;99.90;;;;;;5088759;28;20210;-70
2024/03/03 07:39:46;;;;;;;35.93;28.33;;;10.70;99.90;;;;;;5088585;28;20323;-70
2024/03/03 07:42:13;;;;;;;34.33;27.27;;;10.70;99.90;;;;;;5088721;28;20323;-70
2024/03/03 07:44:39;;;;;;;32.13;25.10;;;10.70;99.90;;;;;;5089308;28;20285;-70
2024/03/03 07:47:08;;;;;;;32.43;26.03;;;10.80;99.90;;;;;;5089240;28;20297;-70
2024/03/03 07:49:35;;;;;;;33.80;27.10;;;10.80;99.90;;;;;;5088880;28;20234;-70
2024/03/03 07:52:02;;;;;;;32.13;26.07;;;10.90;99.90;;;;;;5088980;28;20238;-71
2024/03/03 07:54:29;;;;;;;34.23;26.27;;;11.00;99.90;;;;;;5088805;28;20690;-70
2024/03/03 07:56:56;;;;;;;33.23;25.17;;;11.00;99.90;;;;;;5089028;28;20234;-70
2024/03/03 07:59:23;;;;;;;34.07;26.53;;;11.10;99.90;;;;;;5088455;28;20234;-70
2024/03/03 08:01:49;;;;;;;33.47;26.47;;;11.20;99.90;;;;;;5088613;28;20302;-71
2024/03/03 08:04:20;;;;;;;32.70;25.30;;;11.30;99.90;;;;;;5086830;28;20213;-70
2024/03/03 08:06:47;;;;;;;31.57;25.23;;;11.30;99.90;;;;;;5081495;28;20298;-70
2024/03/03 08:09:14;;;;;;;34.23;24.77;;;11.30;99.90;;;;;;5088078;28;20769;-70
2024/03/03 08:11:41;;;;;;;33.03;25.70;;;11.40;99.90;;;;;;5088260;28;20294;-69
2024/03/03 08:14:08;;;;;;;32.03;25.30;;;11.50;99.90;;;;;;5088033;28;20230;-69
2024/03/03 08:16:36;;;;;;;32.10;24.30;;;11.60;99.90;;;;;;5088043;28;20729;-69
2024/03/03 08:19:03;;;;;;;33.17;24.80;;;11.60;99.90;;;;;;5088179;28;20230;-69
2024/03/03 08:21:31;;;;;;;33.80;25.07;;;11.60;99.90;;;;;;5088030;28;20641;-70
2024/03/03 08:23:58;;;;;;;30.50;24.10;;;11.70;99.90;;;;;;5088401;28;20575;-70
2024/03/03 08:26:26;;;;;;;27.00;22.67;;;11.80;99.90;;;;;;5088219;28;20669;-70
2024/03/03 08:28:53;;;;;;;28.97;24.10;;;11.80;99.90;;;;;;5087926;28;20673;-71
2024/03/03 08:31:20;;;;;;;28.00;22.70;;;11.80;99.90;;;;;;5087656;28;20207;-69
2024/03/03 08:33:47;;;;;;;27.73;23.20;;;11.90;99.90;;;;;;5087873;28;20238;-70
2024/03/03 08:36:14;;;;;;;28.43;23.23;;;11.90;99.90;;;;;;5087727;28;20289;-70
2024/03/03 08:38:42;;;;;;;29.57;22.83;;;12.00;99.90;;;;;;5088075;28;20231;-69
2024/03/03 08:41:09;;;;;;;27.03;23.33;;;12.10;99.90;;;;;;5087816;28;20305;-69
2024/03/03 08:43:36;;;;;;;29.40;22.57;;;12.20;99.90;;;;;;5087584;28;20302;-70
2024/03/03 08:46:03;;;;;;;27.63;22.00;;;12.20;99.90;;;;;;5087676;28;20242;-69
2024/03/03 08:48:31;;;;;;;26.07;23.03;;;12.40;99.90;;;;;;5083566;28;20273;-72
2024/03/03 08:50:58;;;;;;;27.20;22.73;;;12.30;99.90;;;;;;5067223;28;20200;-70
2024/03/03 08:53:25;;;;;;;26.73;21.50;;;12.40;99.90;;;;;;5072898;28;20298;-69
2024/03/03 08:55:53;;;;;;;26.80;21.27;;;12.40;99.90;;;;;;5087509;28;20254;-70
2024/03/03 08:58:23;;;;;;;27.93;21.47;;;12.50;99.90;;;;;;5069699;28;20298;-70
2024/03/03 09:00:52;;;;;;;23.17;20.23;;;12.60;99.90;;;;;;5077645;28;20285;-70
2024/03/03 09:03:19;;;;;;;27.20;20.93;;;12.60;99.90;;;;;;5086658;28;20213;-70
2024/03/03 09:05:46;;;;;;;26.87;20.80;;;12.70;99.90;;;;;;5087376;28;20206;-70
2024/03/03 09:08:13;;;;;;;24.50;21.03;;;12.80;99.90;;;;;;5086976;28;20207;-70
2024/03/03 09:10:40;;;;;;;22.37;19.97;;;12.80;99.90;;;;;;5087316;28;20301;-71
2024/03/03 09:13:08;;;;;;;23.80;20.00;;;12.80;99.90;;;;;;5086732;28;20337;-70
2024/03/03 09:15:35;;;;;;;24.90;19.77;;;12.90;99.90;;;;;;5086434;28;20250;-70
2024/03/03 09:18:02;;;;;;;20.97;18.77;;;13.00;99.90;;;;;;5086627;28;20291;-69
2024/03/03 09:20:28;;;;;;;24.33;19.93;;;13.00;99.90;;;;;;5086800;28;20555;-71
2024/03/03 09:22:55;;;;;;;21.33;17.70;;;13.10;99.90;;;;;;5086654;28;20623;-69
2024/03/03 09:25:22;;;;;;;33.70;19.27;;;13.10;99.90;;;;;;5085705;28;20727;-70
2024/03/03 09:27:50;;;;;;;19.30;17.30;;;13.20;99.90;;;;;;5085144;28;20737;-71
2024/03/03 09:30:18;;;;;;;23.30;16.87;;;13.30;99.90;;;;;;5086352;28;20214;-70
2024/03/03 09:32:51;;;;;;;19.93;16.97;;;13.40;99.90;;;;;;5086400;28;20679;-70
2024/03/03 09:35:17;;;;;;;19.57;15.97;;;13.50;99.90;;;;;;5086561;28;20221;-70
2024/03/03 09:37:46;;;;;;;18.73;16.73;;;13.60;99.90;;;;;;5086443;28;20207;-70
2024/03/03 09:40:15;;;;;;;17.53;15.57;;;13.60;99.90;;;;;;5086296;28;20227;-70
2024/03/03 09:42:45;;;;;;;18.13;15.77;;;13.70;99.90;;;;;;5082138;28;20799;-70
2024/03/03 09:45:14;;;;;;;17.00;15.17;;;13.80;99.90;;;;;;5066502;28;20218;-70
2024/03/03 09:47:43;;;;;;;17.20;15.37;;;13.80;99.90;;;;;;5066347;28;20213;-69
2024/03/03 09:50:12;;;;;;;19.67;15.07;;;13.90;99.90;;;;;;5084012;28;20301;-70
2024/03/03 09:52:42;;;;;;;17.03;15.23;;;14.00;99.90;;;;;;5086013;28;20554;-70
2024/03/03 09:55:11;;;;;;;16.47;13.80;;;14.10;99.90;;;;;;5086880;28;20713;-70
2024/03/03 09:57:38;;;;;;;16.47;14.77;;;14.10;99.90;;;;;;5090043;28;20206;-70
2024/03/03 10:00:08;;;;;;;16.20;13.57;;;14.30;99.90;;;;;;5090148;28;20234;-70
2024/03/03 10:02:37;;;;;;;14.93;13.07;;;14.40;99.90;;;;;;5090430;28;20343;-70
2024/03/03 10:05:08;;;;;;;14.77;13.20;;;14.50;99.90;;;;;;5090244;28;20217;-70
2024/03/03 10:07:40;;;;;;;14.63;13.13;;;14.50;99.90;;;;;;5089897;28;20198;-69
2024/03/03 10:10:09;;;;;;;14.57;13.20;;;14.60;99.90;;;;;;5090540;28;20221;-70
2024/03/03 10:12:37;;;;;;;18.53;13.70;;;14.70;99.90;;;;;;5089985;28;20241;-70
2024/03/03 10:15:08;;;;;;;16.97;13.07;;;14.80;99.90;;;;;;5089880;28;20253;-70
2024/03/03 10:17:35;;;;;;;13.20;11.03;;;15.00;99.90;;;;;;5090066;28;20263;-70
2024/03/03 10:20:05;;;;;;;12.60;11.30;;;15.10;99.90;;;;;;5089797;28;20739;-70
2024/03/03 10:22:34;;;;;;;12.83;10.97;;;15.00;99.90;;;;;;5089668;28;20247;-69
2024/03/03 10:25:12;;;;;;;10.60;9.50;;;15.00;99.90;;;;;;5090415;28;20207;-69
2024/03/03 10:27:41;;;;;;;10.83;9.73;;;15.10;99.90;;;;;;5089706;28;20199;-71
2024/03/03 10:30:09;;;;;;;11.93;10.37;;;15.10;99.90;;;;;;5090047;28;20303;-70
2024/03/03 10:32:36;;;;;;;12.17;10.00;;;15.20;99.90;;;;;;5089877;28;20620;-70
2024/03/03 10:35:04;;;;;;;10.63;9.53;;;15.30;99.90;;;;;;5089836;28;20306;-70
2024/03/03 10:37:31;;;;;;;10.87;9.77;;;15.40;99.90;;;;;;5089544;28;20223;-70
2024/03/03 10:40:00;;;;;;;10.47;9.47;;;15.40;99.90;;;;;;5087461;28;20317;-70
2024/03/03 10:42:30;;;;;;;11.77;10.10;;;15.50;99.90;;;;;;5089864;28;20217;-70
2024/03/03 10:44:57;;;;;;;12.47;9.73;;;15.40;99.90;;;;;;5089623;28;20214;-70
2024/03/03 10:47:25;;;;;;;11.53;10.33;;;15.40;99.90;;;;;;5090001;28;20207;-69
2024/03/03 10:49:52;;;;;;;12.10;10.17;;;15.40;99.90;;;;;;5088996;28;20278;-68
2024/03/03 10:52:19;;;;;;;11.67;10.47;;;15.30;99.90;;;;;;5089202;28;20297;-70
2024/03/03 10:54:46;;;;;;;10.23;9.23;;;15.20;99.90;;;;;;5090185;28;20198;-70
2024/03/03 10:57:19;;;;;;;11.00;9.90;;;15.20;99.90;;;;;;5089439;28;20313;-70
2024/03/03 10:59:47;;;;;;;11.77;9.60;;;15.20;99.90;;;;;;5089629;28;20214;-70
2024/03/03 11:02:15;;;;;;;9.97;8.97;;;15.10;99.90;;;;;;5089250;28;20203;-71
2024/03/03 11:04:43;;;;;;;10.30;9.30;;;15.00;99.90;;;;;;5089666;28;20239;-70
2024/03/03 11:07:11;;;;;;;9.80;8.80;;;14.80;99.90;;;;;;5089053;28;20298;-70
2024/03/03 11:09:39;;;;;;;8.97;8.10;;;14.70;99.90;;;;;;5089386;28;20669;-70
2024/03/03 11:12:07;;;;;;;9.90;8.70;;;14.70;99.90;;;;;;5089459;28;20199;-71
2024/03/03 11:14:42;;;;;;;9.17;8.27;;;14.60;99.90;;;;;;5089196;28;20227;-70
2024/03/03 11:17:12;;;;;;;9.30;8.40;;;14.50;99.90;;;;;;5089516;28;20227;-70
2024/03/03 11:19:45;;;;;;;9.70;8.77;;;14.50;99.90;;;;;;5088486;28;20317;-71
2024/03/03 11:22:17;;;;;;;9.43;8.40;;;14.50;99.90;;;;;;5089249;28;20226;-70
2024/03/03 11:24:52;;;;;;;8.93;8.03;;;14.60;99.90;;;;;;5088876;28;20664;-72
2024/03/03 11:27:23;;;;;;;8.07;7.27;;;14.60;99.90;;;;;;5089365;28;20318;-71
2024/03/03 11:29:51;;;;;;;8.23;7.40;;;14.60;99.90;;;;;;5089065;28;20210;-70
2024/03/03 11:32:20;;;;;;;7.67;6.97;;;14.70;99.90;;;;;;5089112;28;20233;-70
2024/03/03 11:34:49;;;;;;;9.37;8.40;;;14.90;99.90;;;;;;5086650;28;20211;-70
2024/03/03 11:37:17;;;;;;;8.63;7.73;;;15.10;99.90;;;;;;5086745;28;20898;-70
2024/03/03 11:39:57;;;;;;;7.77;7.07;;;15.10;99.90;;;;;;5087594;28;20317;-71
2024/03/03 11:42:38;;;;;;;7.93;7.23;;;15.40;99.90;;;;;;5087561;28;20289;-70
2024/03/03 11:45:09;;;;;;;8.80;8.00;;;15.70;99.90;;;;;;5087550;28;20827;-71
2024/03/03 11:47:37;;;;;;;8.50;7.63;;;16.00;99.90;;;;;;5086770;28;20195;-71
2024/03/03 11:50:19;;;;;;;11.50;7.67;;;16.00;99.90;;;;;;5086898;28;20697;-71
2024/03/03 11:52:46;;;;;;;7.60;6.90;;;16.00;99.90;;;;;;5086307;28;20712;-71
2024/03/03 11:55:17;;;;;;;7.70;7.00;;;16.00;99.90;;;;;;5087138;28;20211;-71
2024/03/03 11:57:45;;;;;;;8.40;7.37;;;15.90;99.90;;;;;;5086551;28;20746;-71
2024/03/03 12:00:17;;;;;;;8.80;8.00;;;15.60;99.90;;;;;;5086632;28;20328;-70
2024/03/03 12:02:45;;;;;;;8.10;7.40;;;15.40;99.90;;;;;;5086783;28;20191;-70
2024/03/03 12:05:13;;;;;;;8.10;7.30;;;15.20;99.90;;;;;;5069178;28;20203;-71
2024/03/03 12:07:43;;;;;;;8.23;6.93;;;15.20;99.90;;;;;;5073472;28;20203;-70
2024/03/03 12:10:15;;;;;;;8.20;7.43;;;15.10;99.90;;;;;;5071686;28;20203;-71
2024/03/03 12:12:45;;;;;;;7.70;7.00;;;15.00;99.90;;;;;;5068606;28;20231;-71
2024/03/03 12:15:12;;;;;;;7.67;6.97;;;14.90;99.90;;;;;;5086436;28;20245;-71
2024/03/03 12:17:41;;;;;;;7.93;7.13;;;14.90;99.90;;;;;;5085906;28;20256;-71
2024/03/03 12:20:10;;;;;;;7.67;7.00;;;14.80;99.90;;;;;;5086411;28;20237;-71
2024/03/03 12:22:37;;;;;;;7.90;7.03;;;14.80;99.90;;;;;;5086414;28;20290;-72
2024/03/03 12:25:04;;;;;;;11.57;8.67;;;14.80;99.90;;;;;;5086763;28;20763;-71
2024/03/03 12:27:31;;;;;;;10.23;9.27;;;14.70;99.90;;;;;;5086406;28;20256;-71
2024/03/03 12:30:00;;;;;;;9.00;8.10;;;14.60;99.90;;;;;;5085824;28;20222;-70
2024/03/03 12:32:27;;;;;;;10.90;9.73;;;14.60;99.90;;;;;;5071591;28;20213;-71
2024/03/03 12:34:57;;;;;;;11.87;9.10;;;14.50;99.90;;;;;;5086444;28;20293;-70
2024/03/03 12:37:24;;;;;;;9.20;8.30;;;14.50;99.90;;;;;;5086514;28;20202;-70